sensor_id;sensor_type;location;lat;lon;timestamp;P1;durP1;ratioP1;P2;durP2;ratioP2
10116;SDS011;5098;48.792;9.012;2024-02-26T00:01:57;5.47;;;3.77;;
10116;SDS011;5098;48.792;9.012;2024-02-26T00:04:23;3.87;;;3.10;;
10116;SDS011;5098;48.792;9.012;2024-02-26T00:06:49;6.63;;;4.20;;
10116;SDS011;5098;48.792;9.012;2024-02-26T00:09:16;3.93;;;2.97;;
10116;SDS011;5098;48.792;9.012;2024-02-26T00:11:42;3.00;;;2.23;;
10116;SDS011;5098;48.792;9.012;2024-02-26T00:14:08;4.40;;;3.60;;
10116;SDS011;5098;48.792;9.012;2024-02-26T00:16:34;3.60;;;2.90;;
10116;SDS011;5098;48.792;9.012;2024-02-26T00:19:00;3.40;;;2.90;;
10116;SDS011;5098;48.792;9.012;2024-02-26T00:21:27;3.37;;;3.07;;
10116;SDS011;5098;48.792;9.012;2024-02-26T00:23:54;5.40;;;3.53;;
10116;SDS011;5098;48.792;9.012;2024-02-26T00:26:20;4.30;;;3.30;;
10116;SDS011;5098;48.792;9.012;2024-02-26T00:28:46;3.80;;;3.50;;
10116;SDS011;5098;48.792;9.012;2024-02-26T00:31:12;4.33;;;3.13;;
10116;SDS011;5098;48.792;9.012;2024-02-26T00:33:38;3.83;;;3.00;;
10116;SDS011;5098;48.792;9.012;2024-02-26T00:36:05;4.07;;;3.20;;
10116;SDS011;5098;48.792;9.012;2024-02-26T00:38:31;3.13;;;2.70;;
10116;SDS011;5098;48.792;9.012;2024-02-26T00:40:57;3.90;;;2.50;;
10116;SDS011;5098;48.792;9.012;2024-02-26T00:43:23;3.43;;;2.67;;
10116;SDS011;5098;48.792;9.012;2024-02-26T00:45:49;3.67;;;2.67;;
10116;SDS011;5098;48.792;9.012;2024-02-26T00:48:17;3.83;;;2.37;;
10116;SDS011;5098;48.792;9.012;2024-02-26T00:50:43;3.43;;;2.30;;
10116;SDS011;5098;48.792;9.012;2024-02-26T00:53:09;2.97;;;2.67;;
10116;SDS011;5098;48.792;9.012;2024-02-26T00:55:35;5.13;;;2.60;;
10116;SDS011;5098;48.792;9.012;2024-02-26T00:58:01;5.37;;;2.40;;
10116;SDS011;5098;48.792;9.012;2024-02-26T01:00:27;6.17;;;3.13;;
10116;SDS011;5098;48.792;9.012;2024-02-26T01:02:53;7.53;;;4.53;;
10116;SDS011;5098;48.792;9.012;2024-02-26T01:05:19;7.10;;;3.97;;
10116;SDS011;5098;48.792;9.012;2024-02-26T01:07:45;6.17;;;4.10;;
10116;SDS011;5098;48.792;9.012;2024-02-26T01:10:11;5.90;;;3.73;;
10116;SDS011;5098;48.792;9.012;2024-02-26T01:12:37;4.13;;;3.50;;
10116;SDS011;5098;48.792;9.012;2024-02-26T01:15:05;5.47;;;3.53;;
10116;SDS011;5098;48.792;9.012;2024-02-26T01:17:32;5.10;;;3.70;;
10116;SDS011;5098;48.792;9.012;2024-02-26T01:19:58;3.97;;;2.77;;
10116;SDS011;5098;48.792;9.012;2024-02-26T01:22:24;3.23;;;2.50;;
10116;SDS011;5098;48.792;9.012;2024-02-26T01:24:50;3.87;;;3.10;;
10116;SDS011;5098;48.792;9.012;2024-02-26T01:27:16;4.30;;;2.70;;
10116;SDS011;5098;48.792;9.012;2024-02-26T01:29:42;3.77;;;3.20;;
10116;SDS011;5098;48.792;9.012;2024-02-26T01:32:09;4.43;;;2.90;;
10116;SDS011;5098;48.792;9.012;2024-02-26T01:34:35;6.55;;;2.38;;
10116;SDS011;5098;48.792;9.012;2024-02-26T01:37:02;3.83;;;2.10;;
10116;SDS011;5098;48.792;9.012;2024-02-26T01:39:28;3.70;;;3.30;;
10116;SDS011;5098;48.792;9.012;2024-02-26T01:41:55;4.60;;;3.00;;
10116;SDS011;5098;48.792;9.012;2024-02-26T01:44:21;3.50;;;2.80;;
10116;SDS011;5098;48.792;9.012;2024-02-26T01:46:47;5.83;;;3.00;;
10116;SDS011;5098;48.792;9.012;2024-02-26T01:49:13;4.27;;;3.00;;
10116;SDS011;5098;48.792;9.012;2024-02-26T01:51:40;3.90;;;2.93;;
10116;SDS011;5098;48.792;9.012;2024-02-26T01:54:07;3.70;;;2.63;;
10116;SDS011;5098;48.792;9.012;2024-02-26T01:56:33;3.43;;;2.80;;
10116;SDS011;5098;48.792;9.012;2024-02-26T01:59:01;2.80;;;2.50;;
10116;SDS011;5098;48.792;9.012;2024-02-26T02:01:30;3.33;;;2.37;;
10116;SDS011;5098;48.792;9.012;2024-02-26T02:03:57;3.20;;;2.90;;
10116;SDS011;5098;48.792;9.012;2024-02-26T02:06:24;3.93;;;3.00;;
10116;SDS011;5098;48.792;9.012;2024-02-26T02:08:50;3.07;;;2.57;;
10116;SDS011;5098;48.792;9.012;2024-02-26T02:11:16;4.13;;;2.57;;
10116;SDS011;5098;48.792;9.012;2024-02-26T02:13:42;3.10;;;2.80;;
10116;SDS011;5098;48.792;9.012;2024-02-26T02:16:09;2.75;;;1.90;;
10116;SDS011;5098;48.792;9.012;2024-02-26T02:18:35;1.60;;;1.50;;
10116;SDS011;5098;48.792;9.012;2024-02-26T02:21:01;1.60;;;1.43;;
10116;SDS011;5098;48.792;9.012;2024-02-26T02:23:27;1.70;;;1.35;;
10116;SDS011;5098;48.792;9.012;2024-02-26T02:25:54;2.20;;;1.10;;
10116;SDS011;5098;48.792;9.012;2024-02-26T02:28:20;1.80;;;1.47;;
10116;SDS011;5098;48.792;9.012;2024-02-26T02:30:46;1.50;;;1.40;;
10116;SDS011;5098;48.792;9.012;2024-02-26T02:33:12;1.53;;;1.40;;
10116;SDS011;5098;48.792;9.012;2024-02-26T02:35:40;1.57;;;1.30;;
10116;SDS011;5098;48.792;9.012;2024-02-26T02:38:06;1.27;;;1.07;;
10116;SDS011;5098;48.792;9.012;2024-02-26T02:40:32;1.20;;;0.97;;
10116;SDS011;5098;48.792;9.012;2024-02-26T02:43:01;1.30;;;1.00;;
10116;SDS011;5098;48.792;9.012;2024-02-26T02:45:30;1.40;;;1.20;;
10116;SDS011;5098;48.792;9.012;2024-02-26T02:47:56;1.60;;;1.27;;
10116;SDS011;5098;48.792;9.012;2024-02-26T02:50:22;1.40;;;1.27;;
10116;SDS011;5098;48.792;9.012;2024-02-26T02:52:49;2.60;;;1.30;;
10116;SDS011;5098;48.792;9.012;2024-02-26T02:55:15;1.47;;;1.03;;
10116;SDS011;5098;48.792;9.012;2024-02-26T02:57:41;2.47;;;1.10;;
10116;SDS011;5098;48.792;9.012;2024-02-26T03:00:08;1.43;;;1.10;;
10116;SDS011;5098;48.792;9.012;2024-02-26T03:02:34;1.40;;;1.03;;
10116;SDS011;5098;48.792;9.012;2024-02-26T03:05:01;1.10;;;1.00;;
10116;SDS011;5098;48.792;9.012;2024-02-26T03:07:27;1.80;;;1.10;;
10116;SDS011;5098;48.792;9.012;2024-02-26T03:09:54;1.63;;;1.23;;
10116;SDS011;5098;48.792;9.012;2024-02-26T03:12:20;1.93;;;1.10;;
10116;SDS011;5098;48.792;9.012;2024-02-26T03:14:46;2.60;;;1.40;;
10116;SDS011;5098;48.792;9.012;2024-02-26T03:17:12;1.93;;;1.20;;
10116;SDS011;5098;48.792;9.012;2024-02-26T03:19:38;1.50;;;1.40;;
10116;SDS011;5098;48.792;9.012;2024-02-26T03:22:04;2.30;;;1.23;;
10116;SDS011;5098;48.792;9.012;2024-02-26T03:24:30;2.30;;;1.60;;
10116;SDS011;5098;48.792;9.012;2024-02-26T03:26:56;1.33;;;1.03;;
10116;SDS011;5098;48.792;9.012;2024-02-26T03:29:22;1.47;;;0.90;;
10116;SDS011;5098;48.792;9.012;2024-02-26T03:31:49;1.13;;;0.83;;
10116;SDS011;5098;48.792;9.012;2024-02-26T03:34:15;0.70;;;0.57;;
10116;SDS011;5098;48.792;9.012;2024-02-26T03:36:42;1.27;;;0.80;;
10116;SDS011;5098;48.792;9.012;2024-02-26T03:39:08;0.70;;;0.70;;
10116;SDS011;5098;48.792;9.012;2024-02-26T03:41:34;0.80;;;0.57;;
10116;SDS011;5098;48.792;9.012;2024-02-26T03:44:01;2.67;;;0.90;;
10116;SDS011;5098;48.792;9.012;2024-02-26T03:46:27;1.07;;;0.80;;
10116;SDS011;5098;48.792;9.012;2024-02-26T03:48:53;1.10;;;0.90;;
10116;SDS011;5098;48.792;9.012;2024-02-26T03:51:20;0.90;;;0.80;;
10116;SDS011;5098;48.792;9.012;2024-02-26T03:53:46;1.10;;;0.80;;
10116;SDS011;5098;48.792;9.012;2024-02-26T03:56:12;1.37;;;0.83;;
10116;SDS011;5098;48.792;9.012;2024-02-26T03:58:38;1.10;;;0.77;;
10116;SDS011;5098;48.792;9.012;2024-02-26T04:01:06;1.33;;;1.07;;
10116;SDS011;5098;48.792;9.012;2024-02-26T04:03:33;1.13;;;1.00;;
10116;SDS011;5098;48.792;9.012;2024-02-26T04:05:59;1.07;;;0.63;;
10116;SDS011;5098;48.792;9.012;2024-02-26T04:08:25;0.80;;;0.70;;
10116;SDS011;5098;48.792;9.012;2024-02-26T04:10:52;1.30;;;0.90;;
10116;SDS011;5098;48.792;9.012;2024-02-26T04:13:18;1.40;;;1.00;;
10116;SDS011;5098;48.792;9.012;2024-02-26T04:15:44;1.90;;;0.77;;
10116;SDS011;5098;48.792;9.012;2024-02-26T04:18:11;1.40;;;0.97;;
10116;SDS011;5098;48.792;9.012;2024-02-26T04:20:37;1.30;;;0.90;;
10116;SDS011;5098;48.792;9.012;2024-02-26T04:23:04;1.77;;;1.00;;
10116;SDS011;5098;48.792;9.012;2024-02-26T04:25:30;0.90;;;0.77;;
10116;SDS011;5098;48.792;9.012;2024-02-26T04:27:56;1.10;;;0.90;;
10116;SDS011;5098;48.792;9.012;2024-02-26T04:30:22;1.77;;;1.27;;
10116;SDS011;5098;48.792;9.012;2024-02-26T04:32:48;1.40;;;1.13;;
10116;SDS011;5098;48.792;9.012;2024-02-26T04:35:14;1.53;;;1.27;;
10116;SDS011;5098;48.792;9.012;2024-02-26T04:37:40;1.13;;;0.90;;
10116;SDS011;5098;48.792;9.012;2024-02-26T04:40:07;2.80;;;1.30;;
10116;SDS011;5098;48.792;9.012;2024-02-26T04:42:33;1.20;;;1.10;;
10116;SDS011;5098;48.792;9.012;2024-02-26T04:44:59;2.10;;;1.20;;
10116;SDS011;5098;48.792;9.012;2024-02-26T04:47:25;1.10;;;1.00;;
10116;SDS011;5098;48.792;9.012;2024-02-26T04:49:51;1.90;;;1.00;;
10116;SDS011;5098;48.792;9.012;2024-02-26T04:52:18;1.47;;;0.90;;
10116;SDS011;5098;48.792;9.012;2024-02-26T04:54:44;1.40;;;1.10;;
10116;SDS011;5098;48.792;9.012;2024-02-26T04:57:10;1.60;;;0.87;;
10116;SDS011;5098;48.792;9.012;2024-02-26T04:59:36;1.40;;;0.90;;
10116;SDS011;5098;48.792;9.012;2024-02-26T05:02:03;1.77;;;1.33;;
10116;SDS011;5098;48.792;9.012;2024-02-26T05:04:29;1.63;;;1.40;;
10116;SDS011;5098;48.792;9.012;2024-02-26T05:06:55;2.60;;;1.50;;
10116;SDS011;5098;48.792;9.012;2024-02-26T05:09:21;1.23;;;1.13;;
10116;SDS011;5098;48.792;9.012;2024-02-26T05:11:48;2.37;;;1.30;;
10116;SDS011;5098;48.792;9.012;2024-02-26T05:14:14;1.40;;;1.20;;
10116;SDS011;5098;48.792;9.012;2024-02-26T05:16:40;1.27;;;1.10;;
10116;SDS011;5098;48.792;9.012;2024-02-26T05:19:06;1.43;;;1.33;;
10116;SDS011;5098;48.792;9.012;2024-02-26T05:21:32;1.40;;;0.80;;
10116;SDS011;5098;48.792;9.012;2024-02-26T05:23:59;1.50;;;0.93;;
10116;SDS011;5098;48.792;9.012;2024-02-26T05:26:25;1.73;;;1.17;;
10116;SDS011;5098;48.792;9.012;2024-02-26T05:28:51;2.60;;;1.33;;
10116;SDS011;5098;48.792;9.012;2024-02-26T05:31:18;1.50;;;1.13;;
10116;SDS011;5098;48.792;9.012;2024-02-26T05:33:44;1.87;;;1.57;;
10116;SDS011;5098;48.792;9.012;2024-02-26T05:36:10;1.43;;;1.30;;
10116;SDS011;5098;48.792;9.012;2024-02-26T05:38:36;1.50;;;1.30;;
10116;SDS011;5098;48.792;9.012;2024-02-26T05:41:02;1.50;;;1.40;;
10116;SDS011;5098;48.792;9.012;2024-02-26T05:43:29;2.43;;;1.70;;
10116;SDS011;5098;48.792;9.012;2024-02-26T05:45:56;2.03;;;1.63;;
10116;SDS011;5098;48.792;9.012;2024-02-26T05:48:22;3.27;;;1.97;;
10116;SDS011;5098;48.792;9.012;2024-02-26T05:50:48;4.63;;;2.43;;
10116;SDS011;5098;48.792;9.012;2024-02-26T05:53:14;2.80;;;1.90;;
10116;SDS011;5098;48.792;9.012;2024-02-26T05:55:40;2.80;;;2.07;;
10116;SDS011;5098;48.792;9.012;2024-02-26T05:58:06;2.60;;;1.80;;
10116;SDS011;5098;48.792;9.012;2024-02-26T06:00:32;2.40;;;1.77;;
10116;SDS011;5098;48.792;9.012;2024-02-26T06:02:58;2.10;;;1.63;;
10116;SDS011;5098;48.792;9.012;2024-02-26T06:05:24;2.50;;;1.77;;
10116;SDS011;5098;48.792;9.012;2024-02-26T06:07:51;2.67;;;1.80;;
10116;SDS011;5098;48.792;9.012;2024-02-26T06:10:17;2.03;;;1.83;;
10116;SDS011;5098;48.792;9.012;2024-02-26T06:12:46;3.93;;;1.73;;
10116;SDS011;5098;48.792;9.012;2024-02-26T06:15:12;2.00;;;1.80;;
10116;SDS011;5098;48.792;9.012;2024-02-26T06:17:38;3.70;;;2.40;;
10116;SDS011;5098;48.792;9.012;2024-02-26T06:20:04;4.20;;;3.70;;
10116;SDS011;5098;48.792;9.012;2024-02-26T06:22:31;5.53;;;4.90;;
10116;SDS011;5098;48.792;9.012;2024-02-26T06:24:58;2.80;;;2.30;;
10116;SDS011;5098;48.792;9.012;2024-02-26T06:27:24;2.47;;;2.27;;
10116;SDS011;5098;48.792;9.012;2024-02-26T06:29:50;3.40;;;2.37;;
10116;SDS011;5098;48.792;9.012;2024-02-26T06:32:16;2.40;;;2.20;;
10116;SDS011;5098;48.792;9.012;2024-02-26T06:34:42;4.13;;;2.27;;
10116;SDS011;5098;48.792;9.012;2024-02-26T06:37:08;2.58;;;2.38;;
10116;SDS011;5098;48.792;9.012;2024-02-26T06:39:34;2.47;;;2.27;;
10116;SDS011;5098;48.792;9.012;2024-02-26T06:42:00;2.50;;;1.93;;
10116;SDS011;5098;48.792;9.012;2024-02-26T06:44:29;3.23;;;1.73;;
10116;SDS011;5098;48.792;9.012;2024-02-26T06:47:00;2.00;;;1.77;;
10116;SDS011;5098;48.792;9.012;2024-02-26T06:49:26;2.27;;;1.83;;
10116;SDS011;5098;48.792;9.012;2024-02-26T06:51:52;1.93;;;1.50;;
10116;SDS011;5098;48.792;9.012;2024-02-26T06:54:19;3.13;;;2.03;;
10116;SDS011;5098;48.792;9.012;2024-02-26T06:56:45;3.20;;;2.50;;
10116;SDS011;5098;48.792;9.012;2024-02-26T06:59:11;3.90;;;1.80;;
10116;SDS011;5098;48.792;9.012;2024-02-26T07:01:39;2.23;;;2.03;;
10116;SDS011;5098;48.792;9.012;2024-02-26T07:04:05;2.53;;;2.00;;
10116;SDS011;5098;48.792;9.012;2024-02-26T07:06:31;4.90;;;2.53;;
10116;SDS011;5098;48.792;9.012;2024-02-26T07:08:57;4.20;;;1.77;;
10116;SDS011;5098;48.792;9.012;2024-02-26T07:11:23;2.70;;;1.87;;
10116;SDS011;5098;48.792;9.012;2024-02-26T07:13:49;2.40;;;1.67;;
10116;SDS011;5098;48.792;9.012;2024-02-26T07:16:15;1.53;;;1.00;;
10116;SDS011;5098;48.792;9.012;2024-02-26T07:18:42;7.40;;;3.50;;
10116;SDS011;5098;48.792;9.012;2024-02-26T07:21:14;5.40;;;3.13;;
10116;SDS011;5098;48.792;9.012;2024-02-26T07:23:40;4.43;;;2.57;;
10116;SDS011;5098;48.792;9.012;2024-02-26T07:26:06;3.63;;;1.90;;
10116;SDS011;5098;48.792;9.012;2024-02-26T07:28:33;3.47;;;2.30;;
10116;SDS011;5098;48.792;9.012;2024-02-26T07:30:59;1.50;;;1.30;;
10116;SDS011;5098;48.792;9.012;2024-02-26T07:33:25;1.50;;;1.30;;
10116;SDS011;5098;48.792;9.012;2024-02-26T07:35:51;1.90;;;1.50;;
10116;SDS011;5098;48.792;9.012;2024-02-26T07:38:18;1.77;;;1.40;;
10116;SDS011;5098;48.792;9.012;2024-02-26T07:40:44;1.47;;;1.37;;
10116;SDS011;5098;48.792;9.012;2024-02-26T07:43:10;2.50;;;1.60;;
10116;SDS011;5098;48.792;9.012;2024-02-26T07:45:37;2.00;;;1.23;;
10116;SDS011;5098;48.792;9.012;2024-02-26T07:48:03;1.70;;;1.60;;
10116;SDS011;5098;48.792;9.012;2024-02-26T07:50:29;1.27;;;1.10;;
10116;SDS011;5098;48.792;9.012;2024-02-26T07:52:55;1.30;;;1.20;;
10116;SDS011;5098;48.792;9.012;2024-02-26T07:55:21;1.30;;;1.20;;
10116;SDS011;5098;48.792;9.012;2024-02-26T07:57:48;1.57;;;1.20;;
10116;SDS011;5098;48.792;9.012;2024-02-26T08:00:14;1.40;;;1.30;;
10116;SDS011;5098;48.792;9.012;2024-02-26T08:02:42;2.00;;;1.20;;
10116;SDS011;5098;48.792;9.012;2024-02-26T08:05:09;2.27;;;1.60;;
10116;SDS011;5098;48.792;9.012;2024-02-26T08:07:35;1.20;;;1.00;;
10116;SDS011;5098;48.792;9.012;2024-02-26T08:10:01;1.30;;;1.20;;
10116;SDS011;5098;48.792;9.012;2024-02-26T08:12:27;1.33;;;1.03;;
10116;SDS011;5098;48.792;9.012;2024-02-26T08:14:53;1.40;;;1.20;;
10116;SDS011;5098;48.792;9.012;2024-02-26T08:17:20;3.30;;;1.10;;
10116;SDS011;5098;48.792;9.012;2024-02-26T08:19:46;1.70;;;1.57;;
10116;SDS011;5098;48.792;9.012;2024-02-26T08:22:12;2.30;;;1.13;;
10116;SDS011;5098;48.792;9.012;2024-02-26T08:24:41;1.53;;;1.30;;
10116;SDS011;5098;48.792;9.012;2024-02-26T08:27:07;1.43;;;1.30;;
10116;SDS011;5098;48.792;9.012;2024-02-26T08:29:33;1.30;;;0.80;;
10116;SDS011;5098;48.792;9.012;2024-02-26T08:31:59;1.70;;;1.10;;
10116;SDS011;5098;48.792;9.012;2024-02-26T08:34:26;2.80;;;1.43;;
10116;SDS011;5098;48.792;9.012;2024-02-26T08:36:52;1.40;;;1.07;;
10116;SDS011;5098;48.792;9.012;2024-02-26T08:39:18;2.37;;;0.93;;
10116;SDS011;5098;48.792;9.012;2024-02-26T08:41:44;2.07;;;1.20;;
10116;SDS011;5098;48.792;9.012;2024-02-26T08:44:10;4.57;;;3.00;;
10116;SDS011;5098;48.792;9.012;2024-02-26T08:46:37;7.33;;;3.10;;
10116;SDS011;5098;48.792;9.012;2024-02-26T08:49:03;8.57;;;4.27;;
10116;SDS011;5098;48.792;9.012;2024-02-26T08:51:29;7.43;;;3.80;;
10116;SDS011;5098;48.792;9.012;2024-02-26T08:53:56;6.00;;;3.73;;
10116;SDS011;5098;48.792;9.012;2024-02-26T08:56:22;4.87;;;3.17;;
10116;SDS011;5098;48.792;9.012;2024-02-26T08:58:48;3.90;;;2.97;;
10116;SDS011;5098;48.792;9.012;2024-02-26T09:01:15;3.67;;;2.90;;
10116;SDS011;5098;48.792;9.012;2024-02-26T09:03:41;3.60;;;3.30;;
10116;SDS011;5098;48.792;9.012;2024-02-26T09:06:10;4.70;;;3.17;;
10116;SDS011;5098;48.792;9.012;2024-02-26T09:08:39;5.50;;;3.57;;
10116;SDS011;5098;48.792;9.012;2024-02-26T09:11:05;4.90;;;3.53;;
10116;SDS011;5098;48.792;9.012;2024-02-26T09:13:31;3.50;;;2.80;;
10116;SDS011;5098;48.792;9.012;2024-02-26T09:15:57;5.40;;;3.63;;
10116;SDS011;5098;48.792;9.012;2024-02-26T09:18:24;5.77;;;4.00;;
10116;SDS011;5098;48.792;9.012;2024-02-26T09:20:50;5.70;;;4.37;;
10116;SDS011;5098;48.792;9.012;2024-02-26T09:23:16;4.13;;;3.50;;
10116;SDS011;5098;48.792;9.012;2024-02-26T09:25:42;3.73;;;2.53;;
10116;SDS011;5098;48.792;9.012;2024-02-26T09:28:08;4.63;;;2.73;;
10116;SDS011;5098;48.792;9.012;2024-02-26T09:30:34;3.03;;;2.70;;
10116;SDS011;5098;48.792;9.012;2024-02-26T09:33:00;3.73;;;1.97;;
10116;SDS011;5098;48.792;9.012;2024-02-26T09:35:26;3.40;;;1.90;;
10116;SDS011;5098;48.792;9.012;2024-02-26T09:37:52;3.97;;;2.47;;
10116;SDS011;5098;48.792;9.012;2024-02-26T09:40:19;5.47;;;3.20;;
10116;SDS011;5098;48.792;9.012;2024-02-26T09:42:45;5.33;;;2.80;;
10116;SDS011;5098;48.792;9.012;2024-02-26T09:45:12;2.80;;;2.57;;
10116;SDS011;5098;48.792;9.012;2024-02-26T09:47:43;2.27;;;2.07;;
10116;SDS011;5098;48.792;9.012;2024-02-26T09:50:10;2.03;;;1.77;;
10116;SDS011;5098;48.792;9.012;2024-02-26T09:52:38;2.80;;;1.80;;
10116;SDS011;5098;48.792;9.012;2024-02-26T09:55:05;2.90;;;2.00;;
10116;SDS011;5098;48.792;9.012;2024-02-26T09:57:31;1.90;;;1.70;;
10116;SDS011;5098;48.792;9.012;2024-02-26T09:59:59;2.60;;;1.50;;
10116;SDS011;5098;48.792;9.012;2024-02-26T10:02:30;4.43;;;1.30;;
10116;SDS011;5098;48.792;9.012;2024-02-26T10:04:56;1.40;;;1.30;;
10116;SDS011;5098;48.792;9.012;2024-02-26T10:07:22;1.77;;;1.30;;
10116;SDS011;5098;48.792;9.012;2024-02-26T10:09:49;3.57;;;1.40;;
10116;SDS011;5098;48.792;9.012;2024-02-26T10:12:15;2.17;;;1.20;;
10116;SDS011;5098;48.792;9.012;2024-02-26T10:14:42;2.10;;;1.10;;
10116;SDS011;5098;48.792;9.012;2024-02-26T10:17:08;2.67;;;1.50;;
10116;SDS011;5098;48.792;9.012;2024-02-26T10:19:34;2.00;;;1.37;;
10116;SDS011;5098;48.792;9.012;2024-02-26T10:22:01;3.40;;;1.30;;
10116;SDS011;5098;48.792;9.012;2024-02-26T10:24:28;1.47;;;1.07;;
10116;SDS011;5098;48.792;9.012;2024-02-26T10:26:55;1.97;;;1.47;;
10116;SDS011;5098;48.792;9.012;2024-02-26T10:29:23;3.03;;;1.53;;
10116;SDS011;5098;48.792;9.012;2024-02-26T10:31:50;3.17;;;2.57;;
10116;SDS011;5098;48.792;9.012;2024-02-26T10:34:16;3.37;;;2.83;;
10116;SDS011;5098;48.792;9.012;2024-02-26T10:36:42;4.03;;;2.83;;
10116;SDS011;5098;48.792;9.012;2024-02-26T10:39:09;3.53;;;2.90;;
10116;SDS011;5098;48.792;9.012;2024-02-26T10:41:35;7.40;;;2.37;;
10116;SDS011;5098;48.792;9.012;2024-02-26T10:44:02;4.53;;;3.30;;
10116;SDS011;5098;48.792;9.012;2024-02-26T10:46:28;3.23;;;2.60;;
10116;SDS011;5098;48.792;9.012;2024-02-26T10:48:54;6.17;;;3.30;;
10116;SDS011;5098;48.792;9.012;2024-02-26T10:51:26;4.57;;;2.93;;
10116;SDS011;5098;48.792;9.012;2024-02-26T10:53:55;5.67;;;3.70;;
10116;SDS011;5098;48.792;9.012;2024-02-26T10:56:26;5.40;;;3.60;;
10116;SDS011;5098;48.792;9.012;2024-02-26T10:58:53;4.70;;;2.87;;
10116;SDS011;5098;48.792;9.012;2024-02-26T11:01:20;4.33;;;2.83;;
10116;SDS011;5098;48.792;9.012;2024-02-26T11:03:51;5.40;;;3.47;;
10116;SDS011;5098;48.792;9.012;2024-02-26T11:06:18;5.80;;;3.43;;
10116;SDS011;5098;48.792;9.012;2024-02-26T11:08:49;4.67;;;3.13;;
10116;SDS011;5098;48.792;9.012;2024-02-26T11:11:16;3.40;;;2.90;;
10116;SDS011;5098;48.792;9.012;2024-02-26T11:13:44;5.37;;;3.37;;
10116;SDS011;5098;48.792;9.012;2024-02-26T11:16:14;4.70;;;2.88;;
10116;SDS011;5098;48.792;9.012;2024-02-26T11:18:42;3.53;;;2.90;;
10116;SDS011;5098;48.792;9.012;2024-02-26T11:21:08;5.30;;;3.03;;
10116;SDS011;5098;48.792;9.012;2024-02-26T11:23:35;3.63;;;2.50;;
10116;SDS011;5098;48.792;9.012;2024-02-26T11:26:02;3.13;;;2.50;;
10116;SDS011;5098;48.792;9.012;2024-02-26T11:28:29;3.13;;;2.50;;
10116;SDS011;5098;48.792;9.012;2024-02-26T11:30:57;5.03;;;2.90;;
10116;SDS011;5098;48.792;9.012;2024-02-26T11:33:25;3.13;;;2.40;;
10116;SDS011;5098;48.792;9.012;2024-02-26T11:35:51;6.17;;;3.13;;
10116;SDS011;5098;48.792;9.012;2024-02-26T11:38:19;4.70;;;2.60;;
10116;SDS011;5098;48.792;9.012;2024-02-26T11:40:48;5.30;;;2.77;;
10116;SDS011;5098;48.792;9.012;2024-02-26T11:43:15;2.70;;;2.37;;
10116;SDS011;5098;48.792;9.012;2024-02-26T11:48:11;4.23;;;3.30;;
10116;SDS011;5098;48.792;9.012;2024-02-26T11:50:40;4.20;;;2.93;;
10116;SDS011;5098;48.792;9.012;2024-02-26T11:53:23;2.13;;;1.93;;
10116;SDS011;5098;48.792;9.012;2024-02-26T11:58:35;4.00;;;2.30;;
10116;SDS011;5098;48.792;9.012;2024-02-26T12:01:02;4.20;;;2.50;;
10116;SDS011;5098;48.792;9.012;2024-02-26T12:03:29;2.50;;;2.30;;
10116;SDS011;5098;48.792;9.012;2024-02-26T12:05:55;2.90;;;2.50;;
10116;SDS011;5098;48.792;9.012;2024-02-26T12:08:22;3.30;;;2.00;;
10116;SDS011;5098;48.792;9.012;2024-02-26T12:10:48;2.37;;;2.17;;
10116;SDS011;5098;48.792;9.012;2024-02-26T12:13:16;3.27;;;2.07;;
10116;SDS011;5098;48.792;9.012;2024-02-26T12:18:18;2.57;;;2.07;;
10116;SDS011;5098;48.792;9.012;2024-02-26T12:20:45;4.23;;;2.70;;
10116;SDS011;5098;48.792;9.012;2024-02-26T12:23:15;2.50;;;1.80;;
10116;SDS011;5098;48.792;9.012;2024-02-26T12:25:44;3.17;;;2.30;;
10116;SDS011;5098;48.792;9.012;2024-02-26T12:28:13;4.23;;;2.10;;
10116;SDS011;5098;48.792;9.012;2024-02-26T12:30:39;3.07;;;1.93;;
10116;SDS011;5098;48.792;9.012;2024-02-26T12:33:06;5.43;;;2.30;;
10116;SDS011;5098;48.792;9.012;2024-02-26T12:35:33;4.50;;;2.27;;
10116;SDS011;5098;48.792;9.012;2024-02-26T12:38:00;2.73;;;1.60;;
10116;SDS011;5098;48.792;9.012;2024-02-26T12:40:27;1.90;;;1.43;;
10116;SDS011;5098;48.792;9.012;2024-02-26T12:42:54;2.57;;;1.80;;
10116;SDS011;5098;48.792;9.012;2024-02-26T12:45:20;1.77;;;1.30;;
10116;SDS011;5098;48.792;9.012;2024-02-26T12:47:46;1.47;;;1.20;;
10116;SDS011;5098;48.792;9.012;2024-02-26T12:50:15;1.87;;;1.40;;
10116;SDS011;5098;48.792;9.012;2024-02-26T12:52:43;1.80;;;1.33;;
10116;SDS011;5098;48.792;9.012;2024-02-26T12:55:10;1.57;;;1.40;;
10116;SDS011;5098;48.792;9.012;2024-02-26T12:57:37;1.60;;;1.10;;
10116;SDS011;5098;48.792;9.012;2024-02-26T13:00:06;1.67;;;1.10;;
10116;SDS011;5098;48.792;9.012;2024-02-26T13:02:36;1.70;;;1.00;;
10116;SDS011;5098;48.792;9.012;2024-02-26T13:05:03;2.53;;;1.30;;
10116;SDS011;5098;48.792;9.012;2024-02-26T13:07:30;1.70;;;1.07;;
10116;SDS011;5098;48.792;9.012;2024-02-26T13:09:56;1.90;;;1.40;;
10116;SDS011;5098;48.792;9.012;2024-02-26T13:12:22;2.80;;;1.20;;
10116;SDS011;5098;48.792;9.012;2024-02-26T13:14:58;2.10;;;1.80;;
10116;SDS011;5098;48.792;9.012;2024-02-26T13:17:24;4.50;;;2.33;;
10116;SDS011;5098;48.792;9.012;2024-02-26T13:19:53;2.20;;;1.60;;
10116;SDS011;5098;48.792;9.012;2024-02-26T13:22:22;3.43;;;2.10;;
10116;SDS011;5098;48.792;9.012;2024-02-26T13:24:55;2.30;;;1.80;;
10116;SDS011;5098;48.792;9.012;2024-02-26T13:27:22;2.70;;;2.10;;
10116;SDS011;5098;48.792;9.012;2024-02-26T13:29:48;2.37;;;2.00;;
10116;SDS011;5098;48.792;9.012;2024-02-26T13:32:14;6.53;;;2.00;;
10116;SDS011;5098;48.792;9.012;2024-02-26T13:34:40;2.43;;;1.70;;
10116;SDS011;5098;48.792;9.012;2024-02-26T13:37:06;12.10;;;7.63;;
10116;SDS011;5098;48.792;9.012;2024-02-26T13:39:34;7.63;;;5.90;;
10116;SDS011;5098;48.792;9.012;2024-02-26T13:42:00;13.23;;;10.97;;
10116;SDS011;5098;48.792;9.012;2024-02-26T13:44:26;2.07;;;1.60;;
10116;SDS011;5098;48.792;9.012;2024-02-26T13:46:52;2.30;;;1.40;;
10116;SDS011;5098;48.792;9.012;2024-02-26T13:49:18;3.50;;;2.93;;
10116;SDS011;5098;48.792;9.012;2024-02-26T13:51:44;1.80;;;1.47;;
10116;SDS011;5098;48.792;9.012;2024-02-26T13:54:10;3.30;;;1.43;;
10116;SDS011;5098;48.792;9.012;2024-02-26T13:56:43;1.73;;;1.33;;
10116;SDS011;5098;48.792;9.012;2024-02-26T13:59:09;2.60;;;1.50;;
10116;SDS011;5098;48.792;9.012;2024-02-26T14:01:35;3.00;;;1.80;;
10116;SDS011;5098;48.792;9.012;2024-02-26T14:04:01;3.73;;;1.37;;
10116;SDS011;5098;48.792;9.012;2024-02-26T14:06:28;1.20;;;1.10;;
10116;SDS011;5098;48.792;9.012;2024-02-26T14:08:55;2.80;;;1.30;;
10116;SDS011;5098;48.792;9.012;2024-02-26T14:11:21;3.07;;;1.07;;
10116;SDS011;5098;48.792;9.012;2024-02-26T14:13:47;1.90;;;1.30;;
10116;SDS011;5098;48.792;9.012;2024-02-26T14:16:13;1.60;;;1.20;;
10116;SDS011;5098;48.792;9.012;2024-02-26T14:18:40;2.27;;;1.40;;
10116;SDS011;5098;48.792;9.012;2024-02-26T14:21:09;1.87;;;1.17;;
10116;SDS011;5098;48.792;9.012;2024-02-26T14:23:35;1.20;;;0.90;;
10116;SDS011;5098;48.792;9.012;2024-02-26T14:26:02;1.43;;;1.20;;
10116;SDS011;5098;48.792;9.012;2024-02-26T14:28:28;1.50;;;1.30;;
10116;SDS011;5098;48.792;9.012;2024-02-26T14:30:55;1.40;;;1.10;;
10116;SDS011;5098;48.792;9.012;2024-02-26T14:33:21;2.23;;;1.10;;
10116;SDS011;5098;48.792;9.012;2024-02-26T14:35:47;6.73;;;1.50;;
10116;SDS011;5098;48.792;9.012;2024-02-26T14:38:13;1.80;;;1.00;;
10116;SDS011;5098;48.792;9.012;2024-02-26T14:40:40;1.30;;;1.00;;
10116;SDS011;5098;48.792;9.012;2024-02-26T14:43:06;1.73;;;0.90;;
10116;SDS011;5098;48.792;9.012;2024-02-26T14:45:34;1.60;;;1.10;;
10116;SDS011;5098;48.792;9.012;2024-02-26T14:48:01;1.30;;;1.00;;
10116;SDS011;5098;48.792;9.012;2024-02-26T14:50:27;1.60;;;1.33;;
10116;SDS011;5098;48.792;9.012;2024-02-26T14:52:54;1.47;;;1.30;;
10116;SDS011;5098;48.792;9.012;2024-02-26T14:55:20;1.30;;;1.07;;
10116;SDS011;5098;48.792;9.012;2024-02-26T14:57:46;1.40;;;0.90;;
10116;SDS011;5098;48.792;9.012;2024-02-26T15:00:12;1.70;;;1.27;;
10116;SDS011;5098;48.792;9.012;2024-02-26T15:02:38;2.33;;;1.57;;
10116;SDS011;5098;48.792;9.012;2024-02-26T15:05:05;1.63;;;1.00;;